sensor_id;sensor_type;location;lat;lon;timestamp;temperature;humidity
16523;DHT22;19889;52.546;13.348;2023-12-20T00:01:50;8.50;99.90
16523;DHT22;19889;52.546;13.348;2023-12-20T00:04:18;8.50;99.90
16523;DHT22;19889;52.546;13.348;2023-12-20T00:06:45;8.50;99.90
16523;DHT22;19889;52.546;13.348;2023-12-20T00:09:12;8.50;99.90
16523;DHT22;19889;52.546;13.348;2023-12-20T00:11:39;8.40;99.90
16523;DHT22;19889;52.546;13.348;2023-12-20T00:14:08;8.40;99.90
16523;DHT22;19889;52.546;13.348;2023-12-20T00:16:37;8.50;99.90
16523;DHT22;19889;52.546;13.348;2023-12-20T00:19:05;8.40;99.90
16523;DHT22;19889;52.546;13.348;2023-12-20T00:21:33;8.50;99.90
16523;DHT22;19889;52.546;13.348;2023-12-20T00:24:01;8.40;99.90
16523;DHT22;19889;52.546;13.348;2023-12-20T00:26:28;8.50;99.90
16523;DHT22;19889;52.546;13.348;2023-12-20T00:28:55;8.50;99.90
16523;DHT22;19889;52.546;13.348;2023-12-20T00:31:23;8.40;99.90
16523;DHT22;19889;52.546;13.348;2023-12-20T00:33:52;8.40;99.90
16523;DHT22;19889;52.546;13.348;2023-12-20T00:36:19;8.60;99.90
16523;DHT22;19889;52.546;13.348;2023-12-20T00:38:47;8.40;99.90
16523;DHT22;19889;52.546;13.348;2023-12-20T00:41:15;8.40;99.90
16523;DHT22;19889;52.546;13.348;2023-12-20T00:43:43;8.40;99.90
16523;DHT22;19889;52.546;13.348;2023-12-20T00:46:11;8.30;99.90
16523;DHT22;19889;52.546;13.348;2023-12-20T00:48:38;8.10;99.90
16523;DHT22;19889;52.546;13.348;2023-12-20T00:51:09;8.40;99.90
16523;DHT22;19889;52.546;13.348;2023-12-20T00:53:36;8.40;99.90
16523;DHT22;19889;52.546;13.348;2023-12-20T00:56:04;8.60;99.90
16523;DHT22;19889;52.546;13.348;2023-12-20T00:58:32;8.30;99.90
16523;DHT22;19889;52.546;13.348;2023-12-20T01:00:59;8.00;99.90
16523;DHT22;19889;52.546;13.348;2023-12-20T01:03:27;8.40;99.90
16523;DHT22;19889;52.546;13.348;2023-12-20T01:05:54;8.40;99.90
16523;DHT22;19889;52.546;13.348;2023-12-20T01:08:23;8.40;99.90
16523;DHT22;19889;52.546;13.348;2023-12-20T01:10:50;8.40;99.90
16523;DHT22;19889;52.546;13.348;2023-12-20T01:13:18;8.40;99.90
16523;DHT22;19889;52.546;13.348;2023-12-20T01:15:45;8.40;99.90
16523;DHT22;19889;52.546;13.348;2023-12-20T01:18:13;8.20;99.90
16523;DHT22;19889;52.546;13.348;2023-12-20T01:20:41;8.40;99.90
16523;DHT22;19889;52.546;13.348;2023-12-20T01:23:08;8.40;99.90
16523;DHT22;19889;52.546;13.348;2023-12-20T01:25:37;8.40;99.90
16523;DHT22;19889;52.546;13.348;2023-12-20T01:28:04;8.40;99.90
16523;DHT22;19889;52.546;13.348;2023-12-20T01:30:32;8.40;99.90
16523;DHT22;19889;52.546;13.348;2023-12-20T01:33:00;8.40;99.90
16523;DHT22;19889;52.546;13.348;2023-12-20T01:35:28;8.40;99.90
16523;DHT22;19889;52.546;13.348;2023-12-20T01:37:55;8.40;99.90
16523;DHT22;19889;52.546;13.348;2023-12-20T01:40:23;8.40;99.90
16523;DHT22;19889;52.546;13.348;2023-12-20T01:43:00;8.40;99.90
16523;DHT22;19889;52.546;13.348;2023-12-20T01:45:27;8.50;99.90
16523;DHT22;19889;52.546;13.348;2023-12-20T01:47:57;8.40;99.90
16523;DHT22;19889;52.546;13.348;2023-12-20T01:50:26;8.40;99.90
16523;DHT22;19889;52.546;13.348;2023-12-20T01:52:55;8.40;99.90
16523;DHT22;19889;52.546;13.348;2023-12-20T01:55:25;8.40;99.90
16523;DHT22;19889;52.546;13.348;2023-12-20T01:57:53;8.40;99.90
16523;DHT22;19889;52.546;13.348;2023-12-20T02:00:22;8.30;99.90
16523;DHT22;19889;52.546;13.348;2023-12-20T02:02:53;8.40;99.90
16523;DHT22;19889;52.546;13.348;2023-12-20T02:05:21;8.40;99.90
16523;DHT22;19889;52.546;13.348;2023-12-20T02:07:48;8.40;99.90
16523;DHT22;19889;52.546;13.348;2023-12-20T02:10:16;8.40;99.90
16523;DHT22;19889;52.546;13.348;2023-12-20T02:12:43;8.30;99.90
16523;DHT22;19889;52.546;13.348;2023-12-20T02:15:10;8.40;99.90
16523;DHT22;19889;52.546;13.348;2023-12-20T02:17:40;8.40;99.90
16523;DHT22;19889;52.546;13.348;2023-12-20T02:20:07;8.10;99.90
16523;DHT22;19889;52.546;13.348;2023-12-20T02:22:36;8.30;99.90
16523;DHT22;19889;52.546;13.348;2023-12-20T02:25:04;8.30;99.90
16523;DHT22;19889;52.546;13.348;2023-12-20T02:27:32;8.30;99.90
16523;DHT22;19889;52.546;13.348;2023-12-20T02:29:59;8.30;99.90
16523;DHT22;19889;52.546;13.348;2023-12-20T02:32:26;8.30;99.90
16523;DHT22;19889;52.546;13.348;2023-12-20T02:34:55;8.30;99.90
16523;DHT22;19889;52.546;13.348;2023-12-20T02:37:22;8.30;99.90
16523;DHT22;19889;52.546;13.348;2023-12-20T02:39:51;8.30;99.90
16523;DHT22;19889;52.546;13.348;2023-12-20T02:42:18;8.80;99.90
16523;DHT22;19889;52.546;13.348;2023-12-20T02:44:45;8.20;99.90
16523;DHT22;19889;52.546;13.348;2023-12-20T02:47:12;8.20;99.90
16523;DHT22;19889;52.546;13.348;2023-12-20T02:49:40;8.30;99.90
16523;DHT22;19889;52.546;13.348;2023-12-20T02:52:07;8.30;99.90
16523;DHT22;19889;52.546;13.348;2023-12-20T02:54:34;8.30;99.90
16523;DHT22;19889;52.546;13.348;2023-12-20T02:57:03;8.30;99.90
16523;DHT22;19889;52.546;13.348;2023-12-20T02:59:31;8.20;99.90
16523;DHT22;19889;52.546;13.348;2023-12-20T03:01:58;8.30;99.90
16523;DHT22;19889;52.546;13.348;2023-12-20T03:06:56;8.20;99.90
16523;DHT22;19889;52.546;13.348;2023-12-20T03:09:23;8.30;99.90
16523;DHT22;19889;52.546;13.348;2023-12-20T03:11:50;8.30;99.90
16523;DHT22;19889;52.546;13.348;2023-12-20T03:14:19;8.30;99.90
16523;DHT22;19889;52.546;13.348;2023-12-20T03:16:47;8.30;99.90
16523;DHT22;19889;52.546;13.348;2023-12-20T03:19:15;8.30;99.90
16523;DHT22;19889;52.546;13.348;2023-12-20T03:21:42;8.50;99.90
16523;DHT22;19889;52.546;13.348;2023-12-20T03:24:10;8.30;99.90
16523;DHT22;19889;52.546;13.348;2023-12-20T03:26:37;8.30;99.90
16523;DHT22;19889;52.546;13.348;2023-12-20T03:29:04;8.30;99.90
16523;DHT22;19889;52.546;13.348;2023-12-20T03:31:33;8.30;99.90
16523;DHT22;19889;52.546;13.348;2023-12-20T03:34:00;8.20;99.90
16523;DHT22;19889;52.546;13.348;2023-12-20T03:36:27;8.10;99.90
16523;DHT22;19889;52.546;13.348;2023-12-20T03:38:54;8.20;99.90
16523;DHT22;19889;52.546;13.348;2023-12-20T03:41:22;8.20;99.90
16523;DHT22;19889;52.546;13.348;2023-12-20T03:43:49;8.20;99.90
16523;DHT22;19889;52.546;13.348;2023-12-20T03:46:16;8.20;99.90
16523;DHT22;19889;52.546;13.348;2023-12-20T03:48:45;8.20;99.90
16523;DHT22;19889;52.546;13.348;2023-12-20T03:51:12;8.10;99.90
16523;DHT22;19889;52.546;13.348;2023-12-20T03:53:39;8.10;99.90
16523;DHT22;19889;52.546;13.348;2023-12-20T03:56:06;8.10;99.90
16523;DHT22;19889;52.546;13.348;2023-12-20T03:58:33;8.10;99.90
16523;DHT22;19889;52.546;13.348;2023-12-20T04:01:01;8.10;99.90
16523;DHT22;19889;52.546;13.348;2023-12-20T04:03:28;8.10;99.90
16523;DHT22;19889;52.546;13.348;2023-12-20T04:05:56;8.00;99.90
16523;DHT22;19889;52.546;13.348;2023-12-20T04:08:24;8.10;99.90
16523;DHT22;19889;52.546;13.348;2023-12-20T04:15:46;7.90;99.90
16523;DHT22;19889;52.546;13.348;2023-12-20T04:18:15;7.80;99.90
16523;DHT22;19889;52.546;13.348;2023-12-20T04:20:42;7.90;99.90
16523;DHT22;19889;52.546;13.348;2023-12-20T04:23:11;7.90;99.90
16523;DHT22;19889;52.546;13.348;2023-12-20T04:25:39;7.90;99.90
16523;DHT22;19889;52.546;13.348;2023-12-20T04:28:06;7.90;99.90
16523;DHT22;19889;52.546;13.348;2023-12-20T04:30:33;7.80;99.90
16523;DHT22;19889;52.546;13.348;2023-12-20T04:33:00;7.80;99.90
16523;DHT22;19889;52.546;13.348;2023-12-20T04:35:28;7.80;99.90
16523;DHT22;19889;52.546;13.348;2023-12-20T04:37:55;7.80;99.90
16523;DHT22;19889;52.546;13.348;2023-12-20T04:40:24;7.80;99.90
16523;DHT22;19889;52.546;13.348;2023-12-20T04:42:51;7.70;99.90
16523;DHT22;19889;52.546;13.348;2023-12-20T04:45:18;7.50;99.90
16523;DHT22;19889;52.546;13.348;2023-12-20T04:47:45;7.70;99.90
16523;DHT22;19889;52.546;13.348;2023-12-20T04:50:13;7.70;99.90
16523;DHT22;19889;52.546;13.348;2023-12-20T04:52:40;7.40;99.90
16523;DHT22;19889;52.546;13.348;2023-12-20T04:55:08;7.60;99.90
16523;DHT22;19889;52.546;13.348;2023-12-20T04:57:37;7.60;99.90
16523;DHT22;19889;52.546;13.348;2023-12-20T05:00:05;7.60;99.90
16523;DHT22;19889;52.546;13.348;2023-12-20T05:02:34;7.60;99.90
16523;DHT22;19889;52.546;13.348;2023-12-20T05:05:01;7.60;99.90
16523;DHT22;19889;52.546;13.348;2023-12-20T05:07:28;7.50;99.90
16523;DHT22;19889;52.546;13.348;2023-12-20T05:09:55;7.60;99.90
16523;DHT22;19889;52.546;13.348;2023-12-20T05:12:23;7.50;99.90
16523;DHT22;19889;52.546;13.348;2023-12-20T05:14:52;7.60;99.90
16523;DHT22;19889;52.546;13.348;2023-12-20T05:17:19;7.60;99.90
16523;DHT22;19889;52.546;13.348;2023-12-20T05:19:46;7.60;99.90
16523;DHT22;19889;52.546;13.348;2023-12-20T05:22:14;7.50;99.90
16523;DHT22;19889;52.546;13.348;2023-12-20T05:24:41;7.50;99.90
16523;DHT22;19889;52.546;13.348;2023-12-20T05:27:08;7.50;99.90
16523;DHT22;19889;52.546;13.348;2023-12-20T05:29:36;7.50;99.90
16523;DHT22;19889;52.546;13.348;2023-12-20T05:32:05;7.40;99.90
16523;DHT22;19889;52.546;13.348;2023-12-20T05:34:32;7.50;99.90
16523;DHT22;19889;52.546;13.348;2023-12-20T05:36:59;7.40;99.90
16523;DHT22;19889;52.546;13.348;2023-12-20T05:39:27;7.40;99.90
16523;DHT22;19889;52.546;13.348;2023-12-20T05:41:54;7.40;99.90
16523;DHT22;19889;52.546;13.348;2023-12-20T05:44:21;7.40;99.90
16523;DHT22;19889;52.546;13.348;2023-12-20T05:46:49;7.30;99.90
16523;DHT22;19889;52.546;13.348;2023-12-20T05:49:17;7.40;99.90
16523;DHT22;19889;52.546;13.348;2023-12-20T05:51:44;7.40;99.90
16523;DHT22;19889;52.546;13.348;2023-12-20T05:54:11;7.30;99.90
16523;DHT22;19889;52.546;13.348;2023-12-20T05:56:39;7.40;99.90
16523;DHT22;19889;52.546;13.348;2023-12-20T05:59:06;7.30;99.90
16523;DHT22;19889;52.546;13.348;2023-12-20T06:01:34;7.20;99.90
16523;DHT22;19889;52.546;13.348;2023-12-20T06:04:01;7.30;99.90
16523;DHT22;19889;52.546;13.348;2023-12-20T06:06:30;7.20;99.90
16523;DHT22;19889;52.546;13.348;2023-12-20T06:08:57;7.20;99.90
16523;DHT22;19889;52.546;13.348;2023-12-20T06:11:25;7.30;99.90
16523;DHT22;19889;52.546;13.348;2023-12-20T06:13:53;7.20;99.90
16523;DHT22;19889;52.546;13.348;2023-12-20T06:16:20;7.30;99.90
16523;DHT22;19889;52.546;13.348;2023-12-20T06:18:48;7.20;99.90
16523;DHT22;19889;52.546;13.348;2023-12-20T06:21:15;7.10;99.90
16523;DHT22;19889;52.546;13.348;2023-12-20T06:23:44;7.20;99.90
16523;DHT22;19889;52.546;13.348;2023-12-20T06:26:11;7.20;99.90
16523;DHT22;19889;52.546;13.348;2023-12-20T06:28:38;7.20;99.90
16523;DHT22;19889;52.546;13.348;2023-12-20T06:31:06;7.20;99.90
16523;DHT22;19889;52.546;13.348;2023-12-20T06:33:33;7.20;99.90
16523;DHT22;19889;52.546;13.348;2023-12-20T06:36:00;7.20;99.90
16523;DHT22;19889;52.546;13.348;2023-12-20T06:38:28;7.20;99.90
16523;DHT22;19889;52.546;13.348;2023-12-20T06:40:56;7.20;99.90
16523;DHT22;19889;52.546;13.348;2023-12-20T06:43:24;7.30;99.90
16523;DHT22;19889;52.546;13.348;2023-12-20T06:45:52;7.30;99.90
16523;DHT22;19889;52.546;13.348;2023-12-20T06:48:19;7.30;99.90
16523;DHT22;19889;52.546;13.348;2023-12-20T06:50:46;7.20;99.90
16523;DHT22;19889;52.546;13.348;2023-12-20T06:53:14;7.20;99.90
16523;DHT22;19889;52.546;13.348;2023-12-20T06:55:41;7.20;99.90
16523;DHT22;19889;52.546;13.348;2023-12-20T06:58:10;7.20;99.90
16523;DHT22;19889;52.546;13.348;2023-12-20T07:00:37;7.30;99.90
16523;DHT22;19889;52.546;13.348;2023-12-20T07:03:04;7.20;99.90
16523;DHT22;19889;52.546;13.348;2023-12-20T07:05:32;7.30;99.90
16523;DHT22;19889;52.546;13.348;2023-12-20T07:08:00;7.20;99.90
16523;DHT22;19889;52.546;13.348;2023-12-20T07:10:27;7.20;99.90
16523;DHT22;19889;52.546;13.348;2023-12-20T07:12:54;7.20;99.90
16523;DHT22;19889;52.546;13.348;2023-12-20T07:15:23;7.10;99.90
16523;DHT22;19889;52.546;13.348;2023-12-20T07:17:50;7.10;99.90
16523;DHT22;19889;52.546;13.348;2023-12-20T07:20:18;7.20;99.90
16523;DHT22;19889;52.546;13.348;2023-12-20T07:22:45;7.30;99.90
16523;DHT22;19889;52.546;13.348;2023-12-20T07:25:12;7.30;99.90
16523;DHT22;19889;52.546;13.348;2023-12-20T07:27:40;7.40;99.90
16523;DHT22;19889;52.546;13.348;2023-12-20T07:30:08;7.40;99.90
16523;DHT22;19889;52.546;13.348;2023-12-20T07:32:37;7.40;99.90
16523;DHT22;19889;52.546;13.348;2023-12-20T07:35:04;7.40;99.90
16523;DHT22;19889;52.546;13.348;2023-12-20T07:37:32;7.40;99.90
16523;DHT22;19889;52.546;13.348;2023-12-20T07:39:59;7.30;99.90
16523;DHT22;19889;52.546;13.348;2023-12-20T07:42:27;7.40;99.90
16523;DHT22;19889;52.546;13.348;2023-12-20T07:44:54;7.40;99.90
16523;DHT22;19889;52.546;13.348;2023-12-20T07:47:22;7.40;99.90
16523;DHT22;19889;52.546;13.348;2023-12-20T07:49:50;7.40;99.90
16523;DHT22;19889;52.546;13.348;2023-12-20T07:52:18;7.40;99.90
16523;DHT22;19889;52.546;13.348;2023-12-20T07:54:47;7.40;99.90
16523;DHT22;19889;52.546;13.348;2023-12-20T07:57:15;7.40;99.90
16523;DHT22;19889;52.546;13.348;2023-12-20T07:59:42;7.30;99.90
16523;DHT22;19889;52.546;13.348;2023-12-20T08:02:10;7.40;99.90
16523;DHT22;19889;52.546;13.348;2023-12-20T08:04:38;7.50;99.90
16523;DHT22;19889;52.546;13.348;2023-12-20T08:07:08;7.40;99.90
16523;DHT22;19889;52.546;13.348;2023-12-20T08:09:35;7.50;99.90
16523;DHT22;19889;52.546;13.348;2023-12-20T08:12:03;7.50;99.90
16523;DHT22;19889;52.546;13.348;2023-12-20T08:14:31;7.40;99.90
16523;DHT22;19889;52.546;13.348;2023-12-20T08:16:58;7.50;99.90
16523;DHT22;19889;52.546;13.348;2023-12-20T08:19:25;7.50;99.90
16523;DHT22;19889;52.546;13.348;2023-12-20T08:21:53;7.50;99.90
16523;DHT22;19889;52.546;13.348;2023-12-20T08:24:22;7.30;99.90
16523;DHT22;19889;52.546;13.348;2023-12-20T08:26:49;7.60;99.90
16523;DHT22;19889;52.546;13.348;2023-12-20T08:29:16;7.50;99.90
16523;DHT22;19889;52.546;13.348;2023-12-20T08:31:44;7.60;99.90
16523;DHT22;19889;52.546;13.348;2023-12-20T08:34:12;7.50;99.90
16523;DHT22;19889;52.546;13.348;2023-12-20T08:36:40;7.50;99.90
16523;DHT22;19889;52.546;13.348;2023-12-20T08:39:08;7.50;99.90
16523;DHT22;19889;52.546;13.348;2023-12-20T08:41:36;7.60;99.90
16523;DHT22;19889;52.546;13.348;2023-12-20T08:44:04;7.60;99.90
16523;DHT22;19889;52.546;13.348;2023-12-20T08:46:31;7.70;99.90
16523;DHT22;19889;52.546;13.348;2023-12-20T08:48:58;7.70;99.90
16523;DHT22;19889;52.546;13.348;2023-12-20T08:51:26;7.70;99.90
16523;DHT22;19889;52.546;13.348;2023-12-20T08:53:54;7.70;99.90
16523;DHT22;19889;52.546;13.348;2023-12-20T08:56:21;7.70;99.90
16523;DHT22;19889;52.546;13.348;2023-12-20T08:58:50;7.80;99.90
16523;DHT22;19889;52.546;13.348;2023-12-20T09:01:17;7.80;99.90
16523;DHT22;19889;52.546;13.348;2023-12-20T09:03:45;7.80;99.90
16523;DHT22;19889;52.546;13.348;2023-12-20T09:06:12;7.80;99.90
16523;DHT22;19889;52.546;13.348;2023-12-20T09:08:39;7.90;99.90
16523;DHT22;19889;52.546;13.348;2023-12-20T09:11:07;7.90;99.90
16523;DHT22;19889;52.546;13.348;2023-12-20T09:13:34;8.00;99.90
16523;DHT22;19889;52.546;13.348;2023-12-20T09:16:03;8.20;99.90
16523;DHT22;19889;52.546;13.348;2023-12-20T09:18:31;8.00;99.90
16523;DHT22;19889;52.546;13.348;2023-12-20T09:20:59;8.10;99.90
16523;DHT22;19889;52.546;13.348;2023-12-20T09:23:26;8.10;99.90
16523;DHT22;19889;52.546;13.348;2023-12-20T09:25:53;8.10;99.90
16523;DHT22;19889;52.546;13.348;2023-12-20T09:35:56;8.00;99.90
16523;DHT22;19889;52.546;13.348;2023-12-20T09:38:24;8.10;99.90
16523;DHT22;19889;52.546;13.348;2023-12-20T09:40:52;7.60;99.90
16523;DHT22;19889;52.546;13.348;2023-12-20T09:43:20;8.00;99.90
16523;DHT22;19889;52.546;13.348;2023-12-20T09:45:53;8.20;99.90
16523;DHT22;19889;52.546;13.348;2023-12-20T09:48:22;8.10;99.90
16523;DHT22;19889;52.546;13.348;2023-12-20T09:50:51;8.20;99.90
16523;DHT22;19889;52.546;13.348;2023-12-20T09:53:19;8.00;99.90
16523;DHT22;19889;52.546;13.348;2023-12-20T09:55:49;8.10;99.90
16523;DHT22;19889;52.546;13.348;2023-12-20T09:58:17;8.10;99.90
16523;DHT22;19889;52.546;13.348;2023-12-20T10:00:44;8.10;99.90
16523;DHT22;19889;52.546;13.348;2023-12-20T10:03:14;8.10;99.90
16523;DHT22;19889;52.546;13.348;2023-12-20T10:05:44;8.10;99.90
16523;DHT22;19889;52.546;13.348;2023-12-20T10:08:12;8.10;99.90
16523;DHT22;19889;52.546;13.348;2023-12-20T10:10:40;8.10;99.90
16523;DHT22;19889;52.546;13.348;2023-12-20T10:13:10;8.10;99.90
16523;DHT22;19889;52.546;13.348;2023-12-20T10:15:38;8.10;99.90
16523;DHT22;19889;52.546;13.348;2023-12-20T10:18:06;8.10;99.90
16523;DHT22;19889;52.546;13.348;2023-12-20T10:20:34;8.10;99.90
16523;DHT22;19889;52.546;13.348;2023-12-20T10:30:40;8.00;99.90
16523;DHT22;19889;52.546;13.348;2023-12-20T10:33:08;8.10;99.90
16523;DHT22;19889;52.546;13.348;2023-12-20T10:35:37;8.10;99.90
16523;DHT22;19889;52.546;13.348;2023-12-20T10:38:06;8.10;99.90
16523;DHT22;19889;52.546;13.348;2023-12-20T10:40:35;8.00;99.90
16523;DHT22;19889;52.546;13.348;2023-12-20T10:43:04;8.30;99.90
16523;DHT22;19889;52.546;13.348;2023-12-20T10:50:28;8.20;99.90
16523;DHT22;19889;52.546;13.348;2023-12-20T10:52:56;8.20;99.90
16523;DHT22;19889;52.546;13.348;2023-12-20T10:55:25;8.20;99.90
16523;DHT22;19889;52.546;13.348;2023-12-20T10:57:57;8.20;99.90
16523;DHT22;19889;52.546;13.348;2023-12-20T11:00:26;8.10;99.90
16523;DHT22;19889;52.546;13.348;2023-12-20T11:03:00;8.10;99.90
16523;DHT22;19889;52.546;13.348;2023-12-20T11:05:36;8.10;99.90
16523;DHT22;19889;52.546;13.348;2023-12-20T11:08:10;8.00;99.90
16523;DHT22;19889;52.546;13.348;2023-12-20T11:10:43;8.10;99.90
16523;DHT22;19889;52.546;13.348;2023-12-20T11:13:20;8.00;99.90
16523;DHT22;19889;52.546;13.348;2023-12-20T11:15:47;8.10;99.90
16523;DHT22;19889;52.546;13.348;2023-12-20T11:18:15;7.80;99.90
16523;DHT22;19889;52.546;13.348;2023-12-20T11:20:43;8.10;99.90
16523;DHT22;19889;52.546;13.348;2023-12-20T11:23:10;8.00;99.90
16523;DHT22;19889;52.546;13.348;2023-12-20T11:25:51;8.00;99.90
16523;DHT22;19889;52.546;13.348;2023-12-20T11:28:21;8.00;99.90
16523;DHT22;19889;52.546;13.348;2023-12-20T11:30:51;8.00;99.90
16523;DHT22;19889;52.546;13.348;2023-12-20T11:33:21;8.00;99.90
16523;DHT22;19889;52.546;13.348;2023-12-20T11:35:49;7.90;99.90
16523;DHT22;19889;52.546;13.348;2023-12-20T11:38:17;7.90;99.90
16523;DHT22;19889;52.546;13.348;2023-12-20T11:40:48;8.30;99.90
16523;DHT22;19889;52.546;13.348;2023-12-20T11:43:29;7.90;99.90
16523;DHT22;19889;52.546;13.348;2023-12-20T11:46:03;8.00;99.90
16523;DHT22;19889;52.546;13.348;2023-12-20T11:48:31;8.00;99.90
16523;DHT22;19889;52.546;13.348;2023-12-20T11:50:58;8.00;99.90
16523;DHT22;19889;52.546;13.348;2023-12-20T11:53:25;8.00;99.90
16523;DHT22;19889;52.546;13.348;2023-12-20T11:55:55;8.00;99.90
16523;DHT22;19889;52.546;13.348;2023-12-20T11:58:22;8.00;99.90
16523;DHT22;19889;52.546;13.348;2023-12-20T12:00:50;8.20;99.90
16523;DHT22;19889;52.546;13.348;2023-12-20T12:03:17;8.00;99.90
16523;DHT22;19889;52.546;13.348;2023-12-20T12:05:47;8.00;99.90
16523;DHT22;19889;52.546;13.348;2023-12-20T12:08:15;8.00;99.90
16523;DHT22;19889;52.546;13.348;2023-12-20T12:10:42;7.80;99.90
16523;DHT22;19889;52.546;13.348;2023-12-20T12:13:11;7.90;99.90
16523;DHT22;19889;52.546;13.348;2023-12-20T12:15:40;7.80;99.90
16523;DHT22;19889;52.546;13.348;2023-12-20T12:18:08;7.80;99.90
16523;DHT22;19889;52.546;13.348;2023-12-20T12:20:36;7.80;99.90
16523;DHT22;19889;52.546;13.348;2023-12-20T12:23:04;7.80;99.90
16523;DHT22;19889;52.546;13.348;2023-12-20T12:25:34;7.80;99.90
16523;DHT22;19889;52.546;13.348;2023-12-20T12:28:02;7.90;99.90
16523;DHT22;19889;52.546;13.348;2023-12-20T12:30:31;7.90;99.90
16523;DHT22;19889;52.546;13.348;2023-12-20T12:32:58;7.90;99.90
16523;DHT22;19889;52.546;13.348;2023-12-20T12:35:26;7.80;99.90
16523;DHT22;19889;52.546;13.348;2023-12-20T12:37:53;7.80;99.90
16523;DHT22;19889;52.546;13.348;2023-12-20T12:40:20;7.80;99.90
16523;DHT22;19889;52.546;13.348;2023-12-20T12:42:48;7.80;99.90
16523;DHT22;19889;52.546;13.348;2023-12-20T12:45:15;7.80;99.90
16523;DHT22;19889;52.546;13.348;2023-12-20T12:47:45;7.80;99.90
16523;DHT22;19889;52.546;13.348;2023-12-20T12:50:12;7.80;99.90
16523;DHT22;19889;52.546;13.348;2023-12-20T12:52:39;7.80;99.90
16523;DHT22;19889;52.546;13.348;2023-12-20T12:55:07;7.70;99.90
16523;DHT22;19889;52.546;13.348;2023-12-20T12:57:35;7.70;99.90
16523;DHT22;19889;52.546;13.348;2023-12-20T13:00:03;7.70;99.90
16523;DHT22;19889;52.546;13.348;2023-12-20T13:02:32;7.70;99.90
16523;DHT22;19889;52.546;13.348;2023-12-20T13:05:01;7.70;99.90
16523;DHT22;19889;52.546;13.348;2023-12-20T13:07:28;7.60;99.90
16523;DHT22;19889;52.546;13.348;2023-12-20T13:09:56;7.70;99.90
16523;DHT22;19889;52.546;13.348;2023-12-20T13:12:23;7.70;99.90
16523;DHT22;19889;52.546;13.348;2023-12-20T13:14:50;7.70;99.90
16523;DHT22;19889;52.546;13.348;2023-12-20T13:17:20;7.80;99.90
16523;DHT22;19889;52.546;13.348;2023-12-20T13:19:47;7.80;99.90
16523;DHT22;19889;52.546;13.348;2023-12-20T13:22:17;7.80;99.90
16523;DHT22;19889;52.546;13.348;2023-12-20T13:24:44;7.70;99.90
16523;DHT22;19889;52.546;13.348;2023-12-20T13:27:11;7.60;99.90
16523;DHT22;19889;52.546;13.348;2023-12-20T13:29:39;7.50;99.90
16523;DHT22;19889;52.546;13.348;2023-12-20T13:32:06;7.50;99.90
16523;DHT22;19889;52.546;13.348;2023-12-20T13:34:34;7.50;99.90
16523;DHT22;19889;52.546;13.348;2023-12-20T13:37:01;7.40;99.90
16523;DHT22;19889;52.546;13.348;2023-12-20T13:39:30;7.40;99.90
16523;DHT22;19889;52.546;13.348;2023-12-20T13:41:57;7.40;99.90
16523;DHT22;19889;52.546;13.348;2023-12-20T13:44:25;7.40;99.90
16523;DHT22;19889;52.546;13.348;2023-12-20T13:46:52;7.40;99.90
16523;DHT22;19889;52.546;13.348;2023-12-20T13:49:19;8.10;99.90
16523;DHT22;19889;52.546;13.348;2023-12-20T13:51:47;7.40;99.90
16523;DHT22;19889;52.546;13.348;2023-12-20T13:54:14;7.40;99.90
16523;DHT22;19889;52.546;13.348;2023-12-20T13:56:44;7.30;99.90
16523;DHT22;19889;52.546;13.348;2023-12-20T13:59:11;7.30;99.90
16523;DHT22;19889;52.546;13.348;2023-12-20T14:01:38;7.30;99.90
16523;DHT22;19889;52.546;13.348;2023-12-20T14:04:06;7.20;99.90
16523;DHT22;19889;52.546;13.348;2023-12-20T14:06:33;7.20;99.90
16523;DHT22;19889;52.546;13.348;2023-12-20T14:09:01;7.20;99.90
16523;DHT22;19889;52.546;13.348;2023-12-20T14:11:29;7.10;99.90
16523;DHT22;19889;52.546;13.348;2023-12-20T14:13:58;7.10;99.90
16523;DHT22;19889;52.546;13.348;2023-12-20T14:16:25;7.00;99.90
16523;DHT22;19889;52.546;13.348;2023-12-20T14:18:52;7.00;99.90
16523;DHT22;19889;52.546;13.348;2023-12-20T14:21:23;7.00;99.90
16523;DHT22;19889;52.546;13.348;2023-12-20T14:23:51;7.00;99.90
16523;DHT22;19889;52.546;13.348;2023-12-20T14:26:18;7.00;99.90
16523;DHT22;19889;52.546;13.348;2023-12-20T14:28:46;7.00;99.90
16523;DHT22;19889;52.546;13.348;2023-12-20T14:31:15;7.00;99.90
16523;DHT22;19889;52.546;13.348;2023-12-20T14:33:42;7.10;99.90
16523;DHT22;19889;52.546;13.348;2023-12-20T14:36:09;7.10;99.90
16523;DHT22;19889;52.546;13.348;2023-12-20T14:38:37;7.10;99.90
16523;DHT22;19889;52.546;13.348;2023-12-20T14:41:05;7.10;99.90
16523;DHT22;19889;52.546;13.348;2023-12-20T14:43:34;7.10;99.90
16523;DHT22;19889;52.546;13.348;2023-12-20T14:46:02;6.90;99.90
16523;DHT22;19889;52.546;13.348;2023-12-20T14:48:31;7.10;99.90
16523;DHT22;19889;52.546;13.348;2023-12-20T14:50:59;7.10;99.90
16523;DHT22;19889;52.546;13.348;2023-12-20T14:53:26;7.10;99.90
16523;DHT22;19889;52.546;13.348;2023-12-20T14:55:54;7.10;99.90
16523;DHT22;19889;52.546;13.348;2023-12-20T14:58:21;7.10;99.90
16523;DHT22;19889;52.546;13.348;2023-12-20T15:00:49;7.10;99.90
16523;DHT22;19889;52.546;13.348;2023-12-20T15:03:16;7.10;99.90
16523;DHT22;19889;52.546;13.348;2023-12-20T15:05:46;7.10;99.90
16523;DHT22;19889;52.546;13.348;2023-12-20T15:08:15;7.50;99.90
16523;DHT22;19889;52.546;13.348;2023-12-20T15:10:43;7.10;99.90
16523;DHT22;19889;52.546;13.348;2023-12-20T15:13:10;7.10;99.90
16523;DHT22;19889;52.546;13.348;2023-12-20T15:15:38;7.10;99.90
16523;DHT22;19889;52.546;13.348;2023-12-20T15:18:06;7.10;99.90
16523;DHT22;19889;52.546;13.348;2023-12-20T15:20:33;7.20;99.90
16523;DHT22;19889;52.546;13.348;2023-12-20T15:23:04;7.20;99.90
16523;DHT22;19889;52.546;13.348;2023-12-20T15:25:33;7.20;99.90
16523;DHT22;19889;52.546;13.348;2023-12-20T15:28:00;7.10;99.90
16523;DHT22;19889;52.546;13.348;2023-12-20T15:30:28;7.20;99.90
16523;DHT22;19889;52.546;13.348;2023-12-20T15:32:56;7.20;99.90
16523;DHT22;19889;52.546;13.348;2023-12-20T15:35:23;7.10;99.90
16523;DHT22;19889;52.546;13.348;2023-12-20T15:37:51;7.10;99.90
16523;DHT22;19889;52.546;13.348;2023-12-20T15:40:19;7.00;99.90
16523;DHT22;19889;52.546;13.348;2023-12-20T15:42:47;7.00;99.90
16523;DHT22;19889;52.546;13.348;2023-12-20T15:45:14;7.70;99.90
16523;DHT22;19889;52.546;13.348;2023-12-20T15:47:41;6.90;99.90
16523;DHT22;19889;52.546;13.348;2023-12-20T15:50:12;6.90;99.90
16523;DHT22;19889;52.546;13.348;2023-12-20T15:52:40;6.80;99.90
16523;DHT22;19889;52.546;13.348;2023-12-20T15:55:09;6.80;99.90
16523;DHT22;19889;52.546;13.348;2023-12-20T15:57:37;6.80;99.90
16523;DHT22;19889;52.546;13.348;2023-12-20T16:00:06;6.80;99.90
16523;DHT22;19889;52.546;13.348;2023-12-20T16:02:35;6.70;99.90